Terminal Aerodrome Forecast
Issued by NWS

Home | Current Version | Previous Version | Text Only | Print | Product List | Glossary On
Versions: 1 2 3 4 5 6 7 8 9 10 11 12 13 14 15 16 17 18 19 20 21 22 23 24 25 26 27 28 29 30 31 32 33 34 35 36 37 38 39 40
000
FTUS43 KDDC 070015 AAA
TAFGCK
TAF AMD
KGCK 070015Z 0700/0724 20015G25KT P6SM VCTS BKN060CB
     FM070200 18014G22KT P6SM BKN070 WS020/20050KT
     FM070900 19013KT 5SM BR BKN006
     FM071500 19014G21KT P6SM SCT030=

USA.gov is the U.S. government's official web portal to all federal, state and local government web resources and services.